Kearney, NE

8:52 PM CDT on March 26, 2017 (GMT -0500)
Kearney Municipal

Weather History for KEAR - November, 2012

Change the Weather History Date:

Friday, November 2, 2012

  Actual Average Record
Temperature  
Mean Temperature 41 °F 44 °F  
Max Temperature 54 °F 57 °F 79 °F (1931)
Min Temperature 28 °F 31 °F 3 °F (1991)
Degree Days  
Heating Degree Days 24 21  
Month to date heating degree days 42  
Cooling Degree Days 0 0  
Month to date cooling degree days 0  
Moisture  
Dew Point 34 °F    
Average Humidity 73    
Maximum Humidity 92    
Minimum Humidity 54    
Precipitation  
Precipitation 0.00 in - 0.80 in (1998)
Sea Level Pressure  
Sea Level Pressure 29.97 in    
Wind  
Wind Speed 11 mph (NNE)    
Max Wind Speed 22 mph    
Max Gust Speed 27 mph    
Visibility 7 miles    
Events      
T = Trace of Precipitation, MM = Missing Value Source: NWS Daily Summary

Daily Weather History Graph

Daily Weather History Graph

Search for Another Location

Airport or City:

Trip Planner

Search our weather history database for the weather conditions in past years. The results will help you decide how hot, cold, wet, or windy it might be!

Date:

Astronomy

Nov. 02, 2012 Rise Set
Actual Time 8:08 AM CDT 6:30 PM CDT
Civil Twilight 7:39 AM CDT 6:58 PM CDT
Nautical Twilight 7:07 AM CDT 7:31 PM CDT
Astronomical Twilight 6:35 AM CDT 8:03 PM CDT
Moon 9:18 PM CDT (11/2) 11:30 AM CDT (11/2)
Length of Visible Light 11h 19m
Length of Day
10h 22m
Waning Gibbous, 87% of the Moon is Illuminated
Nov 2
Waning Gibbous
Nov 6
Last Quarter
Nov 13
New
Nov 20
First Quarter
Nov 28
Full

Hourly Weather History & Observations

Time (CDT) Temp. Windchill Dew Point Humidity Pressure Visibility Wind Dir Wind Speed Gust Speed Precip Events Conditions
12:15 AM 37.4 °F 32.1 °F 33.8 °F 87% 29.92 in 6.0 mi ESE 6.9 mph - N/A   Clear
12:35 AM 39.2 °F 33.6 °F 35.6 °F 87% 29.91 in 5.0 mi ESE 8.1 mph - N/A   Clear
12:55 AM 39.2 °F 33.6 °F 35.6 °F 87% 29.91 in 5.0 mi SE 8.1 mph - N/A   Clear
1:15 AM 39.2 °F 33.6 °F 35.6 °F 87% 29.91 in 5.0 mi ESE 8.1 mph - N/A   Clear
1:35 AM 39.2 °F 33.6 °F 35.6 °F 87% 29.91 in 5.0 mi East 8.1 mph - N/A   Clear
1:55 AM 37.4 °F 32.1 °F 33.8 °F 87% 29.91 in 4.0 mi ENE 6.9 mph - N/A   Clear
2:15 AM 37.4 °F 31.4 °F 33.8 °F 87% 29.91 in 4.0 mi East 8.1 mph - N/A   Clear
2:35 AM 35.6 °F 29.2 °F 33.8 °F 93% 29.91 in 3.0 mi East 8.1 mph - N/A   Clear
2:55 AM 35.6 °F 29.2 °F 33.8 °F 93% 29.91 in 3.0 mi East 8.1 mph - N/A   Clear
3:15 AM 35.6 °F 29.2 °F 32.0 °F 87% 29.91 in 2.5 mi ENE 8.1 mph - N/A   Clear
3:35 AM 35.6 °F 28.6 °F 33.8 °F 93% 29.91 in 2.5 mi East 9.2 mph - N/A   Clear
3:55 AM 35.6 °F 29.2 °F 33.8 °F 93% 29.90 in 2.5 mi East 8.1 mph - N/A   Clear
4:15 AM 35.6 °F 29.9 °F 32.0 °F 87% 29.89 in 2.0 mi East 6.9 mph - N/A   Clear
4:35 AM 35.6 °F 29.2 °F 33.8 °F 93% 29.88 in 2.0 mi East 8.1 mph - N/A   Clear
4:55 AM 35.6 °F 29.9 °F 33.8 °F 93% 29.89 in 2.5 mi ENE 6.9 mph - N/A   Clear
5:15 AM 33.8 °F 27.7 °F 32.0 °F 93% 29.89 in 2.0 mi East 6.9 mph - N/A   Clear
5:35 AM 33.8 °F 27.7 °F 30.2 °F 87% 29.89 in 2.0 mi ENE 6.9 mph - N/A   Clear
5:55 AM 33.8 °F 28.6 °F 30.2 °F 87% 29.89 in 2.5 mi East 5.8 mph - N/A   Clear
6:15 AM 33.8 °F 27.7 °F 30.2 °F 87% 29.88 in 2.5 mi East 6.9 mph - N/A   Clear
6:35 AM 32.0 °F 26.4 °F 28.4 °F 87% 29.88 in 2.5 mi ENE 5.8 mph - N/A   Clear
6:55 AM 30.2 °F 23.4 °F 28.4 °F 93% 29.87 in 2.5 mi ENE 6.9 mph - N/A   Clear
7:15 AM 28.4 °F 23.3 °F 26.6 °F 93% 29.87 in 2.5 mi ENE 4.6 mph - N/A   Clear
7:35 AM 30.2 °F 25.4 °F 28.4 °F 93% 29.87 in 1.8 mi NNE 4.6 mph - N/A   Clear
7:55 AM 33.8 °F 28.6 °F 30.2 °F 87% 29.88 in 3.0 mi North 5.8 mph - N/A   Clear
8:15 AM 32.0 °F 27.5 °F 28.4 °F 87% 29.89 in 1.5 mi North 4.6 mph - N/A   Clear
8:35 AM 33.8 °F 28.6 °F 32.0 °F 93% 29.90 in 2.5 mi NNW 5.8 mph - N/A   Clear
8:55 AM 35.6 °F 31.7 °F 32.0 °F 87% 29.91 in 2.5 mi NNW 4.6 mph - N/A   Clear
9:15 AM 35.6 °F 30.7 °F 33.8 °F 93% 29.92 in 3.0 mi NNW 5.8 mph - N/A   Clear
9:35 AM 37.4 °F 33.8 °F 35.6 °F 93% 29.92 in 3.0 mi North 4.6 mph - N/A   Clear
9:55 AM 37.4 °F 32.8 °F 35.6 °F 93% 29.93 in 4.0 mi NNE 5.8 mph - N/A   Clear
10:15 AM 39.2 °F 35.0 °F 35.6 °F 87% 29.92 in 5.0 mi ENE 5.8 mph - N/A   Clear
10:35 AM 39.2 °F 35.0 °F 35.6 °F 87% 29.92 in 5.0 mi ENE 5.8 mph - N/A   Clear
10:55 AM 41.0 °F 37.1 °F 35.6 °F 81% 29.93 in 5.0 mi NE 5.8 mph - N/A   Clear
11:15 AM 42.8 °F 40.1 °F 37.4 °F 81% 29.93 in 7.0 mi NE 4.6 mph - N/A   Clear
11:35 AM 44.6 °F 42.2 °F 37.4 °F 76% 29.94 in 8.0 mi NE 4.6 mph - N/A   Clear
11:55 AM 46.4 °F 43.5 °F 37.4 °F 71% 29.93 in 9.0 mi NNE 5.8 mph - N/A   Clear
12:15 PM 48.2 °F - 37.4 °F 66% 29.94 in 10.0 mi NNE 9.2 mph - N/A   Clear
12:35 PM 48.2 °F - 39.2 °F 71% 29.94 in 10.0 mi North 10.4 mph - N/A   Clear
12:55 PM 48.2 °F - 37.4 °F 66% 29.94 in 10.0 mi NNW 13.8 mph - N/A   Clear
1:15 PM 46.4 °F 40.1 °F 35.6 °F 66% 29.95 in 9.0 mi NNW 15.0 mph 19.6 mph N/A   Clear
1:35 PM 48.2 °F - 35.6 °F 62% 29.94 in 9.0 mi NNW 16.1 mph - N/A   Clear
1:55 PM 48.2 °F - 37.4 °F 66% 29.94 in 8.0 mi NNW 19.6 mph - N/A   Clear
2:15 PM 50.0 °F - 37.4 °F 62% 29.94 in 8.0 mi NNW 19.6 mph 24.2 mph N/A   Clear
2:35 PM 51.8 °F - 37.4 °F 58% 29.94 in 8.0 mi North 20.7 mph 27.6 mph N/A   Clear
2:55 PM 53.6 °F - 37.4 °F 54% 29.95 in 7.0 mi NNW 21.9 mph 26.5 mph N/A   Partly Cloudy
3:15 PM 48.2 °F - 37.4 °F 66% 29.96 in 7.0 mi North 23.0 mph 27.6 mph N/A   Mostly Cloudy
3:35 PM 48.2 °F - 37.4 °F 66% 29.96 in 10.0 mi North 19.6 mph 25.3 mph N/A   Overcast
3:55 PM 48.2 °F - 37.4 °F 66% 29.97 in 10.0 mi NW 20.7 mph 26.5 mph N/A   Overcast
4:15 PM 46.4 °F 39.2 °F 37.4 °F 71% 29.98 in 10.0 mi NNW 18.4 mph 25.3 mph N/A   Overcast
4:35 PM 46.4 °F 38.7 °F 37.4 °F 71% 29.99 in 10.0 mi North 20.7 mph 25.3 mph N/A   Overcast
4:55 PM 46.4 °F 39.0 °F 37.4 °F 71% 30.00 in 9.0 mi NNW 19.6 mph 23.0 mph N/A   Overcast
5:15 PM 46.4 °F 38.5 °F 37.4 °F 71% 30.00 in 9.0 mi North 21.9 mph - N/A   Overcast
5:35 PM 46.4 °F 39.5 °F 37.4 °F 71% 30.01 in 10.0 mi NNW 17.3 mph - N/A   Overcast
5:55 PM 46.4 °F 39.8 °F 37.4 °F 71% 30.02 in 10.0 mi NW 16.1 mph - N/A   Overcast
6:15 PM 44.6 °F 37.2 °F 37.4 °F 76% 30.03 in 10.0 mi North 17.3 mph - N/A   Overcast
6:35 PM 44.6 °F 37.2 °F 35.6 °F 71% 30.05 in 9.0 mi North 17.3 mph 21.9 mph N/A   Overcast
6:55 PM 42.8 °F 34.0 °F 35.6 °F 76% 30.06 in 10.0 mi North 20.7 mph 24.2 mph N/A   Overcast
7:15 PM 42.8 °F 34.8 °F 35.6 °F 76% 30.07 in 10.0 mi NNE 17.3 mph - N/A   Overcast
7:35 PM 42.8 °F 36.6 °F 35.6 °F 76% 30.07 in 10.0 mi North 11.5 mph - N/A   Overcast
7:55 PM 39.2 °F 32.5 °F 33.8 °F 81% 30.08 in 10.0 mi North 10.4 mph - N/A   Scattered Clouds
8:15 PM 37.4 °F 30.8 °F 33.8 °F 87% 30.09 in 10.0 mi North 9.2 mph - N/A   Clear
8:35 PM 37.4 °F 31.4 °F 32.0 °F 81% 30.09 in 10.0 mi North 8.1 mph - N/A   Clear
8:55 PM 37.4 °F 30.8 °F 32.0 °F 81% 30.09 in 10.0 mi North 9.2 mph - N/A   Clear
9:15 PM 35.6 °F 29.2 °F 30.2 °F 81% 30.10 in 10.0 mi North 8.1 mph - N/A   Clear
9:35 PM 35.6 °F 28.0 °F 30.2 °F 81% 30.10 in 10.0 mi North 10.4 mph - N/A   Clear
9:55 PM 35.6 °F 28.6 °F 30.2 °F 81% 30.11 in 10.0 mi North 9.2 mph - N/A   Clear
10:15 PM 35.6 °F 29.2 °F 30.2 °F 81% 30.11 in 10.0 mi NNW 8.1 mph - N/A   Clear
10:35 PM 33.8 °F 27.7 °F 28.4 °F 81% 30.12 in 10.0 mi North 6.9 mph - N/A   Clear
10:55 PM 33.8 °F 28.6 °F 28.4 °F 81% 30.12 in 10.0 mi NNW 5.8 mph - N/A   Clear
11:15 PM 32.0 °F 27.5 °F 28.4 °F 87% 30.13 in 10.0 mi NNW 4.6 mph - N/A   Clear
11:35 PM 32.0 °F 27.5 °F 28.4 °F 87% 30.13 in 10.0 mi NW 4.6 mph - N/A   Clear
11:55 PM 28.4 °F 22.2 °F 24.8 °F 86% 30.13 in 9.0 mi NW 5.8 mph - N/A   Clear